Latest Weather Observations for Adelaide Airport

IDS60801

Issued at 3:31 pm CDT Sunday 26 March 2017 (issued every 30 minutes, with the page automatically refreshed every 10 minutes)

About weather observations | Map of weather stations | Latest weather observations for SA | Other Formats
Station Details ID: 023034 Name: ADELAIDE AIRPORT Lat: -34.95 Lon: 138.52 Height: 2.0 m
Data from the previous 72 hours. | See also: Recent months at Adelaide Airport
Date/Time
CDT
Temp
°C
App
Temp
°C
Dew
Point
°C
Rel
Hum
%
Delta-T
°C
Wind Press
QNH
hPa
Press
MSL
hPa
Rain since
9am
mm
Dir  Spd
km/h
Gust
km/h
Spd
kts
Gust
kts
26/03:00pm 29.5 28.7 16.2 44 8.3 WSW 15 19 8 10 1008.9 1008.9 0.0
26/02:30pm 31.0 30.6 15.3 38 9.7 WSW 11 15 6 8 1009.3 1009.3 0.0
26/02:00pm 28.2 28.3 16.5 49 7.3 SW 11 13 6 7 1010.0 1010.0 0.0
26/01:30pm 27.1 26.5 16.6 52 6.5 WSW 15 17 8 9 1010.6 1010.6 0.0
26/01:00pm 28.1 27.9 16.7 50 7.1 WSW 13 15 7 8 1010.9 1010.9 0.0
26/12:30pm 27.3 26.9 16.3 51 6.8 WSW 13 15 7 8 1011.4 1011.4 0.0
26/12:00pm 28.2 28.9 16.1 47 7.5 NNE 7 11 4 6 1011.7 1011.7 0.0
26/11:30am 27.8 28.6 15.9 48 7.3 SE 6 11 3 6 1012.1 1012.1 0.0
26/11:00am 26.2 27.0 15.9 53 6.3 SE 6 9 3 5 1012.5 1012.5 0.0
26/10:30am 25.8 26.3 16.6 56 5.7 S 9 11 5 6 1012.6 1012.6 0.0
26/10:00am 23.7 24.4 18.8 74 3.1 SW 13 17 7 9 1012.5 1012.5 0.0
26/09:30am 23.5 24.4 18.4 73 3.2 SW 11 15 6 8 1012.3 1012.3 0.0
26/09:00am 23.0 24.6 19.1 78 2.5 SSW 9 11 5 6 1012.0 1012.0 0.0
26/08:30am 22.3 24.9 17.4 74 3.0 CALM 0 0 0 0 1011.9 1011.9 0.0
26/08:00am 21.7 23.5 17.5 77 2.6 ESE 4 7 2 4 1011.7 1011.7 0.0
26/07:30am 22.3 22.1 16.7 70 3.4 NNE 13 17 7 9 1011.5 1011.5 0.0
26/07:00am 22.1 22.1 17.2 74 3.0 NE 13 15 7 8 1011.4 1011.4 0.0
26/06:30am 21.5 21.2 17.4 77 2.5 NE 15 19 8 10 1011.1 1011.1 0.0
26/06:00am 20.8 20.6 17.7 82 1.9 NE 15 17 8 9 1011.3 1011.3 0.0
26/05:30am 20.8 22.5 18.1 84 1.7 NE 6 7 3 4 1011.8 1011.8 0.0
26/05:00am 20.9 22.0 17.1 79 2.3 NNE 7 9 4 5 1011.5 1011.5 0.0
26/04:30am 20.5 21.9 17.9 85 1.6 NNE 7 7 4 4 1011.9 1011.9 0.0
26/04:00am 20.4 23.2 18.0 86 1.5 CALM 0 0 0 0 1012.1 1012.1 0.0
26/03:30am 20.6 22.7 18.0 85 1.6 E 4 7 2 4 1012.2 1012.2 0.0
26/03:00am 20.5 23.3 17.9 85 1.6 CALM 0 0 0 0 1012.8 1012.8 0.0
26/02:30am 20.8 23.6 17.9 83 1.8 CALM 0 0 0 0 1013.0 1013.0 0.0
26/02:00am 20.6 23.5 18.2 86 1.5 CALM 0 0 0 0 1013.2 1013.2 0.0
26/01:30am 21.0 23.9 18.3 84 1.7 CALM 0 0 0 0 1013.3 1013.3 0.0
26/01:00am 21.0 23.9 18.3 84 1.7 CALM 0 0 0 0 1013.7 1013.7 0.0
26/12:30am 21.1 22.8 18.4 84 1.7 NE 7 7 4 4 1013.7 1013.7 0.0
26/12:00am 21.0 22.1 18.1 83 1.8 ENE 9 9 5 5 1013.8 1013.8 0.0
 
Date/Time
CDT
Temp
°C
App
Temp
°C
Dew
Point
°C
Rel
Hum
%
Delta-T
°C
Wind Press
QNH
hPa
Press
MSL
hPa
Rain since
9am
mm
Dir  Spd
km/h
Gust
km/h
Spd
kts
Gust
kts
25/11:30pm 21.6 23.4 18.7 83 1.8 N 7 9 4 5 1014.2 1014.2 0.0
25/11:00pm 21.8 23.7 18.9 83 1.8 NNW 7 9 4 5 1014.2 1014.2 0.0
25/10:30pm 21.9 23.8 18.6 81 2.1 NW 6 7 3 4 1014.1 1014.1 0.0
25/10:00pm 21.8 23.7 18.6 82 2.0 WNW 6 7 3 4 1014.1 1014.1 0.0
25/09:30pm 21.6 23.1 18.1 80 2.2 WNW 7 9 4 5 1013.8 1013.8 0.0
25/09:00pm 21.5 24.1 17.6 78 2.4 CALM 0 0 0 0 1013.1 1013.1 0.0
25/08:30pm 21.8 23.2 17.9 78 2.4 W 7 9 4 5 1013.3 1013.3 0.0
25/08:00pm 22.2 24.6 17.0 72 3.2 CALM 0 0 0 0 1013.1 1013.1 0.0
25/07:30pm 22.4 23.5 17.0 71 3.3 SSW 7 9 4 5 1013.1 1013.1 0.0
25/07:00pm 22.3 22.5 17.6 75 2.9 SSW 13 19 7 10 1013.1 1013.1 0.0
25/06:30pm 22.6 22.5 17.9 75 2.9 SW 15 19 8 10 1013.2 1013.2 0.0
25/06:00pm 22.2 22.8 18.5 79 2.3 S 13 17 7 9 1012.6 1012.6 0.0
25/05:30pm 22.6 22.8 18.5 77 2.6 SSW 15 20 8 11 1012.9 1012.9 0.0
25/05:00pm 22.8 21.9 18.3 76 2.8 SW 20 26 11 14 1013.0 1013.0 0.0
25/04:30pm 23.4 23.2 18.5 74 3.1 SW 17 20 9 11 1012.7 1012.7 0.0
25/04:00pm 23.5 22.7 17.9 71 3.5 SW 19 24 10 13 1012.8 1012.8 0.0
25/03:30pm 23.2 22.9 18.3 74 3.1 SW 17 22 9 12 1012.8 1012.8 0.0
25/03:00pm 23.7 23.6 17.9 70 3.6 SW 15 19 8 10 1012.8 1012.8 0.0
25/02:36pm 23.3 23.3 18.0 72 3.3 SW 15 19 8 10 1013.0 1013.0 0.0
25/02:30pm 23.5 23.1 18.1 71 3.4 SSW 17 19 9 10 1013.0 1013.0 0.0
25/02:00pm 23.1 24.2 18.8 77 2.7 SW 11 13 6 7 1013.2 1013.2 0.0
25/01:30pm 23.4 24.7 19.3 78 2.6 WSW 11 15 6 8 1013.8 1013.8 0.0
25/01:00pm 23.2 24.8 19.9 82 2.1 W 11 15 6 8 1013.9 1013.9 0.0
25/12:30pm 23.2 24.3 18.8 76 2.8 WSW 11 15 6 8 1013.8 1013.8 0.0
25/12:00pm 22.8 23.7 19.3 80 2.2 WSW 13 15 7 8 1014.2 1014.2 0.0
25/11:30am 23.4 24.8 19.5 79 2.5 WSW 11 13 6 7 1014.1 1014.1 0.0
25/11:00am 23.2 24.9 19.3 79 2.5 WSW 9 15 5 8 1014.2 1014.2 0.0
25/10:30am 22.9 24.1 19.1 79 2.4 WSW 11 13 6 7 1014.0 1014.0 0.0
25/10:00am 23.1 25.2 19.0 78 2.6 WSW 6 9 3 5 1013.6 1013.6 0.0
25/09:30am 22.5 25.5 18.5 78 2.5 CALM 0 0 0 0 1013.4 1013.4 0.0
25/09:00am 22.2 24.1 18.5 79 2.3 NNE 6 9 3 5 1013.2 1013.2 0.0
25/08:30am 21.1 22.6 18.0 82 1.9 ENE 7 9 4 5 1013.0 1013.0 0.0
25/08:00am 20.9 21.9 17.7 82 2.0 NNE 9 9 5 5 1013.0 1013.0 0.0
25/07:30am 20.5 22.0 17.7 84 1.7 NNE 6 9 3 5 1012.6 1012.6 0.0
25/07:00am 20.9 22.5 18.3 85 1.6 N 7 9 4 5 1012.0 1012.0 0.0
25/06:30am 21.2 21.7 17.5 79 2.3 NW 11 13 6 7 1011.8 1011.8 0.0
25/06:00am 21.3 21.9 16.7 75 2.8 WNW 9 15 5 8 1011.6 1011.6 0.0
25/05:30am 22.2 22.4 15.7 66 3.9 N 9 11 5 6 1011.1 1011.1 0.0
25/05:00am 22.1 21.9 15.6 66 3.9 NE 11 15 6 8 1010.7 1010.7 0.0
25/04:30am 22.3 21.9 15.3 64 4.2 NE 11 15 6 8 1010.4 1010.4 0.0
25/04:00am 23.0 22.2 15.1 61 4.7 NNE 13 17 7 9 1010.5 1010.5 0.0
25/03:30am 23.1 23.7 16.7 67 3.9 NE 9 11 5 6 1010.8 1010.8 0.0
25/03:00am 22.9 23.9 18.6 77 2.7 NE 11 11 6 6 1011.0 1011.0 0.0
25/02:30am 23.2 25.0 19.6 80 2.3 N 9 11 5 6 1011.3 1011.3 0.0
25/02:00am 23.3 24.5 19.1 77 2.7 NW 11 13 6 7 1011.4 1011.4 0.0
25/01:30am 23.2 24.1 18.3 74 3.1 WNW 11 13 6 7 1011.4 1011.4 0.0
25/01:00am 23.6 23.9 16.0 62 4.6 WNW 9 9 5 5 1011.3 1011.3 0.0
25/12:30am 25.2 25.1 14.9 52 6.2 N 9 11 5 6 1011.3 1011.3 0.0
25/12:00am 25.2 26.6 15.3 54 6.0 NE 2 7 1 4 1011.2 1011.2 0.0
 
Date/Time
CDT
Temp
°C
App
Temp
°C
Dew
Point
°C
Rel
Hum
%
Delta-T
°C
Wind Press
QNH
hPa
Press
MSL
hPa
Rain since
9am
mm
Dir  Spd
km/h
Gust
km/h
Spd
kts
Gust
kts
24/11:30pm 25.5 24.9 14.6 51 6.5 E 11 15 6 8 1011.6 1011.6 0.0
24/11:00pm 25.2 24.8 15.1 53 6.1 ESE 11 15 6 8 1012.0 1012.0 0.0
24/10:30pm 25.6 25.0 14.5 50 6.6 SE 11 15 6 8 1012.4 1012.4 0.0
24/10:00pm 25.8 24.5 14.8 50 6.6 SE 15 19 8 10 1012.5 1012.5 0.0
24/09:30pm 25.5 25.5 15.2 53 6.2 SE 9 13 5 7 1012.3 1012.3 0.0
24/09:00pm 24.2 25.2 17.8 67 4.0 S 9 11 5 6 1012.1 1012.1 0.0
24/08:30pm 25.2 25.3 16.4 58 5.4 SSW 11 15 6 8 1012.2 1012.2 0.0
24/08:00pm 26.0 25.3 14.4 48 6.9 SSW 11 13 6 7 1011.9 1011.9 0.0
24/07:30pm 26.5 25.2 13.8 45 7.5 SSW 13 15 7 8 1011.6 1011.6 0.0
24/07:00pm 26.1 25.0 16.4 55 6.0 SW 17 20 9 11 1011.8 1011.8 0.0
24/06:30pm 29.4 29.1 14.3 39 9.1 SSW 9 9 5 5 1011.1 1011.1 0.0
24/06:00pm 28.9 27.8 13.2 38 9.3 S 11 13 6 7 1011.1 1011.1 0.0
24/05:30pm 28.8 27.6 14.0 40 8.9 SSW 13 17 7 9 1011.4 1011.4 0.0
24/05:00pm 29.6 28.3 13.7 37 9.5 SSW 13 20 7 11 1011.6 1011.6 0.0
24/04:30pm 29.9 27.7 13.3 36 9.9 SW 17 22 9 12 1011.6 1011.6 0.0
24/04:29pm 30.1 28.1 14.0 37 9.7 SW 17 22 9 12 1011.7 1011.7 0.0
24/04:00pm 28.8 27.6 16.0 45 7.9 SSW 17 20 9 11 1011.7 1011.7 0.0
24/03:30pm 27.5 26.5 17.9 55 6.1 WSW 20 24 11 13 1011.8 1011.8 0.0
24/03:00pm 28.0 27.2 18.1 55 6.3 SW 19 22 10 12 1011.8 1011.8 0.0
24/02:30pm 27.9 27.8 17.8 54 6.4 SW 15 20 8 11 1012.0 1012.0 0.0
24/02:00pm 29.4 30.0 16.8 46 7.9 NNW 9 15 5 8 1012.3 1012.3 0.0
24/01:30pm 30.6 29.3 13.8 35 10.1 N 13 20 7 11 1012.6 1012.6 0.0
24/01:00pm 30.2 27.5 13.5 36 10.0 NNW 20 30 11 16 1012.9 1012.9 0.0
24/12:30pm 29.6 27.9 14.6 40 9.1 NNE 17 32 9 17 1013.4 1013.4 0.0
24/12:00pm 29.6 27.5 14.6 40 9.1 NNE 19 28 10 15 1013.4 1013.4 0.0
24/11:30am 29.3 27.4 15.7 43 8.4 ENE 20 28 11 15 1013.6 1013.6 0.0
24/11:00am 28.8 26.0 15.4 44 8.2 NE 24 30 13 16 1013.8 1013.8 0.0
24/10:30am 27.7 25.7 15.4 47 7.5 NE 20 28 11 15 1014.2 1014.2 0.0
24/10:00am 25.5 22.9 15.0 52 6.3 NE 22 28 12 15 1014.4 1014.4 0.0
24/09:30am 25.7 24.5 15.1 52 6.4 NE 15 20 8 11 1014.4 1014.4 0.0
24/09:00am 24.0 22.0 14.9 56 5.4 NNE 19 28 10 15 1014.2 1014.2 0.0
24/08:30am 24.1 22.5 14.9 56 5.5 NE 17 24 9 13 1014.0 1014.0 0.0
24/08:00am 22.9 22.4 15.0 61 4.7 NE 11 13 6 7 1014.2 1014.2 0.0
24/07:41am 22.4 21.1 14.8 62 4.5 NE 15 19 8 10 1014.2 1014.2 0.0
24/07:30am 22.8 21.0 14.5 59 4.9 NE 17 19 9 10 1013.9 1013.9 0.0
24/07:00am 22.8 21.4 14.5 59 4.9 NE 15 19 8 10 1014.1 1014.1 0.0
24/06:30am 22.8 21.0 14.5 59 4.9 ENE 17 20 9 11 1013.8 1013.8 0.0
24/06:00am 22.1 20.9 14.0 60 4.7 NE 13 17 7 9 1013.8 1013.8 0.0
24/05:30am 22.7 20.1 13.8 57 5.2 ENE 20 30 11 16 1014.0 1014.0 0.0
24/05:00am 22.2 20.1 13.6 58 5.0 ENE 17 20 9 11 1013.6 1013.6 0.0
24/04:30am 21.2 20.4 14.0 63 4.2 ENE 11 15 6 8 1013.8 1013.8 0.0
24/04:00am 22.5 20.4 13.5 56 5.2 E 17 24 9 13 1013.7 1013.7 0.0
24/03:30am 23.0 19.5 13.3 54 5.6 E 24 32 13 17 1013.6 1013.6 0.0
24/03:00am 23.0 19.1 13.3 54 5.6 ENE 26 33 14 18 1014.0 1014.0 0.0
24/02:30am 21.5 19.1 13.9 62 4.4 ENE 19 26 10 14 1014.6 1014.6 0.0
24/02:00am 21.0 22.5 14.7 67 3.7 CALM 0 6 0 3 1015.0 1015.0 0.0
24/01:30am 21.3 21.5 14.8 66 3.8 ESE 7 7 4 4 1015.3 1015.3 0.0
24/01:00am 21.8 20.8 14.5 63 4.3 SE 13 17 7 9 1015.4 1015.4 0.0
24/12:30am 21.3 19.6 14.6 65 3.9 SSE 17 22 9 12 1015.9 1015.9 0.0
24/12:00am 20.8 18.6 14.5 67 3.7 SSE 19 24 10 13 1016.1 1016.1 0.0
 
Date/Time
CDT
Temp
°C
App
Temp
°C
Dew
Point
°C
Rel
Hum
%
Delta-T
°C
Wind Press
QNH
hPa
Press
MSL
hPa
Rain since
9am
mm
Dir  Spd
km/h
Gust
km/h
Spd
kts
Gust
kts
23/11:30pm 21.0 18.8 14.3 65 3.9 SSE 19 26 10 14 1016.3 1016.3 0.0
23/11:00pm 21.1 18.8 14.0 64 4.1 S 19 26 10 14 1016.5 1016.5 0.0
23/10:30pm 20.9 18.5 13.8 64 4.1 S 19 24 10 13 1016.4 1016.4 0.0
23/10:00pm 20.8 18.2 13.7 64 4.1 S 20 28 11 15 1016.4 1016.4 0.0
23/09:30pm 21.1 19.0 13.6 62 4.3 SSE 17 20 9 11 1016.5 1016.5 0.0
23/09:00pm 21.5 18.4 13.5 60 4.6 SSE 22 28 12 15 1016.0 1016.0 0.0
23/08:30pm 22.1 18.7 13.6 58 4.9 SSE 24 32 13 17 1015.5 1015.5 0.0
23/08:00pm 22.9 20.4 14.0 57 5.2 SSE 20 30 11 16 1015.5 1015.5 0.0
23/07:30pm 24.0 22.1 14.1 54 5.8 SSE 17 22 9 12 1015.1 1015.1 0.0
23/07:00pm 26.1 24.2 14.1 47 7.1 ESE 17 24 9 13 1014.4 1014.4 0.0
23/06:30pm 27.1 23.8 14.0 44 7.8 ESE 24 30 13 16 1014.5 1014.5 0.0
23/06:00pm 27.7 24.2 13.5 41 8.4 ESE 24 32 13 17 1014.3 1014.3 0.0
23/05:30pm 28.2 25.5 13.5 40 8.7 ESE 20 28 11 15 1014.1 1014.1 0.0
23/05:00pm 29.1 26.5 13.7 38 9.2 ESE 20 28 11 15 1014.0 1014.0 0.0
23/04:30pm 27.1 26.8 16.4 52 6.6 WSW 13 17 7 9 1014.3 1014.3 0.0
23/04:00pm 25.9 25.1 17.0 58 5.5 W 17 24 9 13 1014.5 1014.5 0.0

Other Formats:

Comma delimited format used in spreadsheet applications
http://www.bom.gov.au/fwo/IDS60801/IDS60801.94672.axf

JavaScript Object Notation format (JSON) in row-major order
http://www.bom.gov.au/fwo/IDS60801/IDS60801.94672.json